• Join FlightAware (Why Join?)
  • Login
  • US Flag 
09:30PM EST


 

Airport Tracker/Info


-or-


 

Live Flight TrackerFlight Track Log ✈ SWA419 ✈ 18-Apr-2013 ✈ KSAT - KDEN

Flight Track Log - Related Links

Times and Time Zones

All times are in EDT time to prevent confusion due to time zone crossing. See the SWA419 flight status page for this flight to view local times or setup timezone preferences in your user account.

Time Position Orientation Groundspeed Altitude Reporting Facility
EDT Latitude Longitude Course Direction KTS MPH feet Rate Location/Type
06:59PM 29.5464 -98.4922 304° West 146 168 1,700  Level Houston Center
07:00PM 29.5711 -98.5350 304° West 200 230 3,400 2,520 Climbing Houston Center
07:01PM 29.5961 -98.5736 307° West 213 245 5,700 2,880 Climbing Houston Center
07:02PM 29.6614 -98.5747 359° North 280 322 8,300 2,640 Climbing Houston Center
07:03PM 29.7517 -98.5364 20° North 317 365 11,200 2,700 Climbing Houston Center
07:04PM 29.8531 -98.4964 19° North 384 442 13,900 2,700 Climbing Houston Center
07:05PM 29.9681 -98.4494 19° North 442 509 16,900 2,640 Climbing Houston Center
07:06PM 30.0808 -98.4042 19° North 411 473 19,500 2,400 Climbing Houston Center
07:07PM 30.1953 -98.4450 343° North 425 489 22,000 2,280 Climbing Houston Center
07:08PM 30.2958 -98.5058 332° Northwest 387 445 24,300 1,980 Climbing Houston Center
07:09PM 30.4031 -98.5725 332° Northwest 427 491 26,100 1,920 Climbing Houston Center
07:10PM 30.5133 -98.6394 332° Northwest 440 506 28,300 1,980 Climbing Houston Center
07:11PM 30.6236 -98.7061 333° Northwest 442 509 30,300 1,740 Climbing Houston Center
07:12PM 30.7322 -98.7719 332° Northwest 437 503 32,000 1,200 Climbing Houston Center
07:13PM 30.8378 -98.8367 332° Northwest 426 490 32,900 1,320 Climbing Houston Center
07:14PM 30.9403 -98.8983 333° Northwest 414 476 34,800 1,260 Climbing Houston Center
07:15PM 31.0425 -98.9631 332° Northwest 411 473 35,600 780 Climbing Houston Center
07:16PM 31.1683 -99.0408 332° Northwest 430 495 36,500 1,140 Climbing Houston Center
07:17PM 31.2789 -99.1081 333° Northwest 441 507 38,000 720 Climbing Houston Center
07:18PM 31.3831 -99.1725 332° Northwest 425 489 38,000  Level Houston Center
07:19PM 31.4592 -99.2228 331° Northwest 414 476 38,000  Level Fort Worth Center
07:20PM 31.5606 -99.2858 332° Northwest 409 471 38,000  Level Fort Worth Center
07:21PM 31.6806 -99.3589 333° Northwest 409 471 38,000  Level Fort Worth Center
07:22PM 31.7839 -99.4247 332° Northwest 409 471 38,000  Level Fort Worth Center
07:23PM 31.8850 -99.4858 333° Northwest 409 471 38,000  Level Fort Worth Center
07:24PM 31.9864 -99.5517 331° Northwest 409 471 38,000  Level Fort Worth Center
07:25PM 32.0894 -99.6153 332° Northwest 414 476 38,000  Level Fort Worth Center
07:26PM 32.1928 -99.6792 332° Northwest 414 476 38,000  Level Fort Worth Center
07:27PM 32.2939 -99.7456 331° Northwest 414 476 38,000  Level Fort Worth Center
07:28PM 32.3969 -99.8122 331° Northwest 414 476 38,000  Level Fort Worth Center
07:29PM 32.5003 -99.8742 333° Northwest 414 476 38,000  Level Fort Worth Center
07:30PM 32.5972 -99.9311 334° Northwest 414 476 38,000  Level Fort Worth Center
07:31PM 32.7378 -99.9967 339° North 433 498 38,000  Level Fort Worth Center
07:32PM 32.8450 -100.0567 335° Northwest 433 498 38,000  Level Fort Worth Center
07:34PM 32.9525 -100.1144 336° Northwest 433 498 38,000  Level Fort Worth Center
07:35PM 33.0844 -100.1853 336° Northwest 433 498 38,000  Level Fort Worth Center
07:36PM 33.1689 -100.2328 335° Northwest 433 498 38,000  Level Fort Worth Center
07:37PM 33.3031 -100.3064 335° Northwest 433 498 38,000  Level Fort Worth Center
07:38PM 33.4122 -100.3672 335° Northwest 433 498 38,000  Level Fort Worth Center
07:39PM 33.5214 -100.4283 335° Northwest 438 504 38,000  Level Fort Worth Center
07:40PM 33.6325 -100.4919 335° Northwest 438 504 38,000  Level Fort Worth Center
07:41PM 33.7436 -100.5508 336° Northwest 438 504 38,000  Level Fort Worth Center
07:42PM 33.8950 -100.6347 335° Northwest 432 497 38,000  Level Albuquerque Center
07:43PM 34.0042 -100.6975 335° Northwest 433 498 38,000  Level Albuquerque Center
07:44PM 34.1369 -100.7714 335° Northwest 438 504 38,000  Level Albuquerque Center
07:45PM 34.2475 -100.8350 335° Northwest 440 506 38,000  Level Albuquerque Center
07:46PM 34.3603 -100.8981 335° Northwest 444 511 38,000  Level Albuquerque Center
07:47PM 34.4725 -100.9611 335° Northwest 446 513 38,000  Level Albuquerque Center
07:48PM 34.5844 -101.0258 335° Northwest 446 513 38,000  Level Albuquerque Center
07:49PM 34.6958 -101.0906 334° Northwest 445 512 38,000  Level Albuquerque Center
07:50PM 34.8044 -101.1533 335° Northwest 437 503 38,000  Level Albuquerque Center
07:51PM 34.9347 -101.2286 335° Northwest 434 499 38,000  Level Albuquerque Center
07:52PM 35.0431 -101.2922 334° Northwest 433 498 38,000  Level Albuquerque Center
07:53PM 35.1597 -101.3589 335° Northwest 438 504 38,000  Level Albuquerque Center
07:54PM 35.2731 -101.4244 335° Northwest 445 512 38,000  Level Albuquerque Center
07:55PM 35.3842 -101.4894 335° Northwest 442 509 38,000  Level Albuquerque Center
07:56PM 35.4983 -101.5553 335° Northwest 446 513 38,000  Level Albuquerque Center
07:57PM 35.6094 -101.6225 334° Northwest 435 501 38,000  Level Albuquerque Center
07:59PM 35.7203 -101.6897 334° Northwest 442 509 38,000  Level Albuquerque Center
08:00PM 35.8303 -101.7525 335° Northwest 439 505 38,000  Level Albuquerque Center
08:01PM 35.9389 -101.8178 334° Northwest 437 503 38,000  Level Albuquerque Center
08:02PM 36.0483 -101.8828 334° Northwest 437 503 38,000  Level Albuquerque Center
08:03PM 36.1572 -101.9489 334° Northwest 435 501 38,000  Level Albuquerque Center
08:04PM 36.2883 -102.0258 335° Northwest 436 502 38,000  Level Albuquerque Center
08:05PM 36.3983 -102.0914 334° Northwest 437 503 38,000  Level Albuquerque Center
08:06PM 36.5083 -102.1586 334° Northwest 440 506 38,000  Level Albuquerque Center
08:07PM 36.6183 -102.2253 334° Northwest 439 505 38,000  Level Albuquerque Center
08:08PM 36.7261 -102.2914 334° Northwest 435 501 38,000  Level Albuquerque Center
08:09PM 36.8333 -102.3556 334° Northwest 430 495 38,000 -240 Level Albuquerque Center
08:10PM 36.9467 -102.4264 333° Northwest 436 502 37,600 -780 Descending Albuquerque Center
08:11PM 37.0678 -102.5006 334° Northwest 433 498 36,500 -840 Descending Albuquerque Center
08:12PM 37.1844 -102.5725 334° Northwest 440 506 36,000 -300 Descending Albuquerque Center
08:13PM 37.2886 -102.6367 334° Northwest 438 504 36,000  Level Albuquerque Center
08:14PM 37.3922 -102.7011 334° Northwest 435 501 36,000  Level Albuquerque Center
08:14PM 37.4422 -102.7314 334° Northwest 431 496 36,000  Level Denver Center
08:15PM 37.5633 -102.8119 332° Northwest 441 507 36,000  Level Denver Center
08:16PM 37.6625 -102.8894 328° Northwest 442 509 36,000  Level Denver Center
08:17PM 37.7797 -102.9775 329° Northwest 439 505 36,000 -120 Level Denver Center
08:19PM 37.8800 -103.0536 329° Northwest 439 505 35,800 -660 Descending Denver Center
08:20PM 37.9961 -103.1428 329° Northwest 438 504 34,700 -1,020 Descending Denver Center
08:21PM 38.0933 -103.2161 329° Northwest 429 494 33,800 -1,020 Descending Denver Center
08:22PM 38.2053 -103.3025 329° Northwest 422 486 32,600 -900 Descending Denver Center
08:23PM 38.2986 -103.3733 329° Northwest 408 470 32,000 -300 Descending Denver Center
08:24PM 38.4078 -103.4569 329° Northwest 411 473 32,000  Level Denver Center
08:25PM 38.4989 -103.5292 328° Northwest 405 466 32,000 -180 Level Denver Center
08:26PM 38.6050 -103.6100 329° Northwest 397 457 31,700 -1,020 Descending Denver Center
08:27PM 38.6911 -103.6783 328° Northwest 380 437 29,900 -1,920 Descending Denver Center
08:28PM 38.7883 -103.7531 329° Northwest 364 419 27,800 -1,980 Descending Denver Center
08:29PM 38.8725 -103.8197 328° Northwest 345 397 25,900 -1,800 Descending Denver Center
08:30PM 38.9453 -103.8889 324° Northwest 325 374 24,200 -1,380 Descending Denver Center
08:31PM 38.9728 -104.0011 288° West 339 390 23,100 -1,260 Descending Denver Center
08:32PM 39.0550 -104.0386 340° North 313 360 21,600 -1,800 Descending Denver Center
08:33PM 39.1361 -104.0739 341° North 306 352 19,400 -2,400 Descending Denver Center
08:34PM 39.2156 -104.1406 327° Northwest 335 386 16,700 -2,280 Descending Denver Center
08:35PM 39.2839 -104.2250 316° Northwest 308 354 14,700 -1,380 Descending Denver Center
08:36PM 39.3431 -104.2925 319° Northwest 281 323 13,900 -720 Descending Denver Center
08:37PM 39.3714 -104.3694 295° West 251 289 13,300 -900 Descending Denver Center
08:38PM 39.4122 -104.4336 309° West 216 249 12,100 -1,140 Descending Denver Center
08:39PM 39.4497 -104.4933 309° West 219 252 11,000 -780 Descending Denver Center
08:40PM 39.5094 -104.5250 338° Northwest 218 251 10,500 -840 Descending Denver Center
08:41PM 39.5642 -104.5561 336° Northwest 216 249 9,300 -780 Descending Denver Center
08:42PM 39.6186 -104.5875 336° Northwest 213 245 9,000 -300 Descending Denver Center
08:43PM 39.6647 -104.6139 336° Northwest 215 247 8,800 -720 Descending Denver Center
08:44PM 39.7181 -104.6403 339° North 171 197 7,600 -1,020 Descending Denver Center
08:45PM 39.7664 -104.6425 358° North 173 199 6,700 -900 Descending Denver Center
08:46PM 39.8097 -104.6417 North 142 163 5,800 -780 Descending Denver Center
08:47PM 39.8483 -104.6422 359° North 138 159 5,200 -600 Descending Denver Center
08:49PM 39.8500 -104.6667 North  Level FlightAware Approximate
08:56PM 39.8617 -104.6732 North  Level Estimated
08:57PM 39.8617 -104.6732 North  Level Estimated
08:58PM 39.8617 -104.6732 North  Level Estimated